METAR Data

Data at: 1015 UTC 21 Apr 2021

METAR for:KBHB (Bar Harbor/Hancock C, ME, US)
Text:KBHB 210956Z AUTO 00000KT 10SM FEW060 06/05 A2989 RMK AO2 SLP121 P0001 T00560050
Temperature: 5.6°C ( 42°F)
Dewpoint: 5.0°C ( 41°F) [RH = 96%]
Pressure (altimeter):29.89 inches Hg (1012.3 mb) [Sea level pressure: 1012.1 mb]
Winds:calm
Visibility:10 or more sm (16+ km)
Ceiling:at least 12,000 feet AGL
Clouds: few clouds at 6000 feet AGL
QC Flag:automated observation with no human augmentation